KHWO/HWO METAR and TAF weather

Enter ICAO airport designator
Station Type Date Time Source
KHWO METAR 2019/06/19 06:53 UTC NOAA

KHWO 190653Z AUTO 16004KT 10SM CLR 24/22 A3004 RMK AO2 SLP171 T02390222


Station Type Date Time Source
KHWO Decoded METAR 2019/06/19 06:53 UTC NOAA

HOLLYWOOD NORTH PERRY AIRPORT , FL, United States (KHWO) 26-00N 080-14W 2M
Jun 19, 2019 - 02:53 AM EDT / 2019.06.19 0653 UTC
Wind: from the SSE (160 degrees) at 5 MPH (4 KT):0
Visibility: 10 mile(s):0
Sky conditions: clear
Temperature: 75.0 F (23.9 C)
Dew Point: 72.0 F (22.2 C)
Relative Humidity: 90%
Pressure (altimeter): 30.04 in. Hg (1017 hPa)
ob: KHWO 190653Z AUTO 16004KT 10SM CLR 24/22 A3004 RMK AO2 SLP171 T02390222
cycle: 7

Station Type Date Time Source
KHWO TAF UTC NOAA

Error!

Example: see airport list